Time;durP1;ratioP1;P1;durP2;ratioP2;P2;SDS_P1;SDS_P2;PMS_P1;PMS_P2;Temp;Humidity;BMP_temperature;BMP_pressure;BME280_temperature;BME280_humidity;BME280_pressure;Samples;Min_cycle;Max_cycle;Signal;HPM_P1;HPM_P2
2022/03/31 00:00:36;;;;;;;4.20;0.77;;;3.50;1.00;;;;;;5008669;28;20026;-77
2022/03/31 00:03:08;;;;;;;0.20;0.10;;;3.40;1.00;;;;;;5008776;28;20550;-77
2022/03/31 00:05:34;;;;;;;2.17;0.43;;;3.40;1.00;;;;;;5009661;28;20425;-77
2022/03/31 00:08:03;;;;;;;0.52;0.40;;;3.40;1.00;;;;;;5008976;28;20039;-77
2022/03/31 00:10:46;;;;;;;4.05;0.80;;;3.40;1.00;;;;;;5009022;28;20318;-77
2022/03/31 00:13:26;;;;;;;4.97;0.47;;;3.40;1.00;;;;;;5003455;28;20027;-77
2022/03/31 00:15:54;;;;;;;0.65;0.43;;;3.30;1.00;;;;;;5010766;28;20429;-77
2022/03/31 00:18:20;;;;;;;2.22;0.52;;;3.30;1.00;;;;;;5009748;28;20030;-77
2022/03/31 00:24:08;;;;;;;2.55;0.60;;;3.30;1.00;;;;;;4995211;28;20077;-77
2022/03/31 00:26:34;;;;;;;1.27;0.50;;;3.30;1.00;;;;;;5009590;28;20550;-77
2022/03/31 00:29:00;;;;;;;0.95;0.50;;;3.30;1.00;;;;;;5011512;28;20478;-77
2022/03/31 00:31:25;;;;;;;2.10;0.63;;;3.20;1.00;;;;;;5010122;28;20061;-77
2022/03/31 00:33:51;;;;;;;2.67;0.77;;;3.20;1.00;;;;;;5009245;28;20030;-77
2022/03/31 00:36:16;;;;;;;5.03;0.90;;;3.20;1.00;;;;;;5008040;28;20033;-77
2022/03/31 00:39:28;;;;;;;0.88;0.57;;;3.20;1.00;;;;;;5008510;28;20474;-77
2022/03/31 00:41:28;;;;;;;4.93;0.88;;;3.20;1.00;;;;;;5001346;28;20409;-77
2022/03/31 00:43:54;;;;;;;3.53;0.65;;;3.20;1.00;;;;;;5007209;28;20025;-77
2022/03/31 00:46:23;;;;;;;4.70;0.70;;;3.20;1.00;;;;;;5007932;28;20034;-77
2022/03/31 00:48:49;;;;;;;1.30;0.80;;;3.20;1.00;;;;;;5007988;28;20033;-77
2022/03/31 00:51:14;;;;;;;2.78;0.80;;;3.20;1.00;;;;;;5008342;28;20058;-76
2022/03/31 00:53:40;;;;;;;2.90;0.80;;;3.10;1.00;;;;;;5008860;28;20081;-77
2022/03/31 00:56:06;;;;;;;3.08;0.82;;;3.10;1.00;;;;;;5007246;28;20058;-77
2022/03/31 00:58:33;;;;;;;1.75;1.00;;;3.10;1.00;;;;;;5007828;28;20033;-77
2022/03/31 01:00:59;;;;;;;1.10;0.82;;;3.10;1.00;;;;;;5007462;28;20053;-77
2022/03/31 01:03:25;;;;;;;4.93;1.10;;;3.10;1.00;;;;;;5008578;28;20034;-77
2022/03/31 01:05:51;;;;;;;2.83;1.13;;;3.10;1.00;;;;;;5007984;28;20074;-77
2022/03/31 01:08:18;;;;;;;2.38;1.02;;;3.10;1.00;;;;;;5007587;28;20023;-76
2022/03/31 01:10:45;;;;;;;2.97;0.90;;;3.10;1.00;;;;;;5007712;28;20046;-76
2022/03/31 01:13:11;;;;;;;4.32;0.90;;;3.10;1.00;;;;;;5020570;23;20065;-80
2022/03/31 01:15:37;;;;;;;3.78;0.90;;;3.10;1.00;;;;;;4998177;28;20034;-80
2022/03/31 01:18:03;;;;;;;3.70;0.88;;;3.10;1.00;;;;;;5013865;28;20045;-81
2022/03/31 01:20:33;;;;;;;3.72;0.93;;;3.00;1.00;;;;;;5014464;28;20030;-81
2022/03/31 01:23:00;;;;;;;4.85;1.00;;;3.10;1.00;;;;;;5005737;28;20030;-81
2022/03/31 01:25:26;;;;;;;4.53;1.65;;;3.00;1.00;;;;;;5013214;28;20049;-81
2022/03/31 01:27:52;;;;;;;2.85;0.80;;;3.10;1.00;;;;;;5000537;28;20027;-81
2022/03/31 01:30:21;;;;;;;2.50;0.68;;;3.10;1.00;;;;;;5004240;28;20060;-81
2022/03/31 01:32:48;;;;;;;3.45;1.00;;;3.10;1.00;;;;;;4999760;28;20524;-81
2022/03/31 01:35:15;;;;;;;2.53;0.82;;;3.10;1.00;;;;;;4998000;28;20029;-81
2022/03/31 01:37:42;;;;;;;2.20;0.95;;;3.10;1.00;;;;;;4994651;28;20025;-81
2022/03/31 01:40:09;;;;;;;4.63;0.95;;;3.10;1.00;;;;;;5009885;28;20031;-82
2022/03/31 01:42:42;;;;;;;1.73;1.10;;;3.00;1.00;;;;;;5013956;28;20097;-81
2022/03/31 01:45:11;;;;;;;4.20;1.00;;;3.00;1.00;;;;;;5012467;28;20022;-81
2022/03/31 01:47:38;;;;;;;6.60;0.80;;;3.00;1.00;;;;;;5007894;28;20014;-81
2022/03/31 01:50:04;;;;;;;1.95;0.90;;;2.90;1.00;;;;;;5010342;28;20071;-81
2022/03/31 01:52:31;;;;;;;4.28;1.10;;;2.90;1.00;;;;;;5015724;28;20077;-81
2022/03/31 01:54:57;;;;;;;3.00;0.95;;;2.90;1.00;;;;;;5002447;28;20023;-82
2022/03/31 01:57:23;;;;;;;2.70;1.35;;;2.80;1.00;;;;;;5003420;28;20019;-82
2022/03/31 01:59:48;;;;;;;2.67;0.90;;;2.80;1.00;;;;;;5007021;28;20082;-81
2022/03/31 02:02:14;;;;;;;2.08;0.93;;;2.80;1.00;;;;;;4998255;28;20023;-81
2022/03/31 02:04:41;;;;;;;4.20;1.15;;;2.80;1.00;;;;;;5002561;28;20047;-81
2022/03/31 02:07:07;;;;;;;2.03;1.02;;;2.80;1.00;;;;;;5005238;28;20023;-81
2022/03/31 02:09:33;;;;;;;4.85;1.00;;;2.70;1.00;;;;;;5010330;28;20621;-80
2022/03/31 02:11:59;;;;;;;7.75;1.88;;;2.70;1.00;;;;;;5012908;28;20038;-81
2022/03/31 02:14:25;;;;;;;1.10;0.85;;;2.70;1.00;;;;;;5004208;28;20067;-81
2022/03/31 02:16:58;;;;;;;2.05;0.70;;;2.80;1.00;;;;;;5008124;28;20035;-81
2022/03/31 02:19:24;;;;;;;5.20;0.75;;;2.80;1.00;;;;;;5000264;28;20014;-81
2022/03/31 02:21:50;;;;;;;4.53;0.90;;;2.80;1.00;;;;;;4996064;28;20094;-81
2022/03/31 02:24:16;;;;;;;2.92;0.95;;;2.80;1.00;;;;;;4998236;28;20034;-81
2022/03/31 02:26:42;;;;;;;2.97;1.17;;;2.80;1.00;;;;;;4991260;28;20011;-81
2022/03/31 02:29:07;;;;;;;3.15;0.82;;;2.80;1.00;;;;;;4994597;28;20091;-81
2022/03/31 02:31:33;;;;;;;2.17;0.77;;;2.80;1.00;;;;;;5002169;28;20593;-81
2022/03/31 02:33:59;;;;;;;3.13;0.95;;;2.90;1.00;;;;;;5011133;28;20026;-81
2022/03/31 02:36:28;;;;;;;1.17;0.77;;;2.90;1.00;;;;;;5004655;28;20056;-81
2022/03/31 02:38:53;;;;;;;2.50;0.85;;;2.90;1.00;;;;;;5007035;28;20022;-81
2022/03/31 02:41:19;;;;;;;2.00;1.08;;;2.90;1.00;;;;;;4999315;28;20078;-82
2022/03/31 02:43:45;;;;;;;1.90;0.63;;;3.00;1.00;;;;;;5001218;28;20054;-82
2022/03/31 02:46:11;;;;;;;6.20;0.90;;;3.00;1.00;;;;;;4993404;28;20031;-81
2022/03/31 02:48:37;;;;;;;0.95;0.70;;;3.20;1.00;;;;;;4995239;28;20117;-81
2022/03/31 02:51:03;;;;;;;2.05;0.95;;;3.30;1.00;;;;;;4993506;28;20026;-81
2022/03/31 02:56:13;;;;;;;2.72;1.10;;;3.40;1.00;;;;;;4999890;28;20050;-81
2022/03/31 02:58:39;;;;;;;1.50;1.08;;;3.40;1.00;;;;;;4993546;28;20018;-81
2022/03/31 03:01:05;;;;;;;4.70;1.30;;;3.50;1.00;;;;;;5000188;28;20041;-82
2022/03/31 03:03:32;;;;;;;5.15;1.70;;;3.40;1.00;;;;;;4992079;28;20046;-81
2022/03/31 03:05:58;;;;;;;5.13;0.90;;;3.40;1.00;;;;;;4993666;28;20026;-81
2022/03/31 03:08:26;;;;;;;4.57;1.52;;;3.40;1.00;;;;;;4992571;28;20026;-81
2022/03/31 03:10:57;;;;;;;2.47;1.10;;;3.30;1.00;;;;;;4994508;28;20007;-81
2022/03/31 03:13:23;;;;;;;3.08;1.15;;;3.30;1.00;;;;;;4994115;28;20058;-81
2022/03/31 03:15:48;;;;;;;2.03;1.17;;;3.30;1.00;;;;;;5001861;28;20074;-81
2022/03/31 03:18:18;;;;;;;4.22;1.90;;;3.30;1.00;;;;;;5001090;28;20022;-81
2022/03/31 03:20:44;;;;;;;3.05;1.90;;;3.30;1.00;;;;;;4994760;28;20021;-80
2022/03/31 03:23:10;;;;;;;7.05;2.45;;;3.30;1.00;;;;;;5009592;28;20065;-81
2022/03/31 03:25:36;;;;;;;4.75;2.35;;;3.30;12.80;;;;;;5002541;28;20321;-81
2022/03/31 03:28:02;;;;;;;3.03;1.63;;;3.40;47.30;;;;;;4994802;28;20042;-81
2022/03/31 03:30:35;;;;;;;2.70;2.10;;;3.50;82.00;;;;;;5003783;28;20053;-80
2022/03/31 03:33:01;;;;;;;3.58;2.50;;;3.50;95.50;;;;;;5010714;28;20082;-81
2022/03/31 03:35:27;;;;;;;5.68;3.13;;;3.40;99.90;;;;;;5003171;28;20082;-81
2022/03/31 03:37:52;;;;;;;5.78;2.80;;;3.50;99.90;;;;;;5002439;28;20129;-80
2022/03/31 03:40:18;;;;;;;4.68;2.80;;;3.50;99.90;;;;;;5003880;28;20018;-80
2022/03/31 03:42:44;;;;;;;3.58;2.63;;;3.50;99.90;;;;;;4994008;28;20023;-80
2022/03/31 03:45:13;;;;;;;4.70;2.00;;;3.50;99.90;;;;;;5001622;28;20052;-80
2022/03/31 03:47:39;;;;;;;3.97;2.35;;;3.60;99.90;;;;;;4998522;28;20019;-80
2022/03/31 03:50:06;;;;;;;5.78;3.05;;;3.50;99.90;;;;;;4995451;28;20049;-81
2022/03/31 03:52:32;;;;;;;3.67;3.10;;;3.50;99.90;;;;;;4993502;28;20031;-81
2022/03/31 03:54:58;;;;;;;7.15;3.28;;;3.50;99.90;;;;;;4999828;28;20026;-82
2022/03/31 03:57:24;;;;;;;3.88;3.15;;;3.60;99.90;;;;;;5009131;28;20026;-80
2022/03/31 03:59:49;;;;;;;5.07;3.15;;;3.60;99.90;;;;;;4995956;28;20027;-80
2022/03/31 04:02:15;;;;;;;6.78;3.63;;;3.60;99.90;;;;;;4998563;28;20061;-80
2022/03/31 04:04:41;;;;;;;6.50;3.70;;;3.70;99.90;;;;;;4997897;28;20019;-81
2022/03/31 04:07:06;;;;;;;5.78;2.70;;;3.60;99.90;;;;;;4993249;28;20034;-80
2022/03/31 04:09:32;;;;;;;5.55;3.47;;;3.60;99.90;;;;;;5007473;28;20029;-81
2022/03/31 04:11:57;;;;;;;6.03;3.50;;;3.60;99.90;;;;;;5004881;28;20034;-80
2022/03/31 04:14:23;;;;;;;3.80;2.58;;;3.60;99.90;;;;;;4997102;28;20051;-80
2022/03/31 04:16:48;;;;;;;7.40;3.08;;;3.60;99.90;;;;;;4993657;28;20030;-81
2022/03/31 04:19:14;;;;;;;4.28;3.05;;;3.60;99.90;;;;;;4996307;28;20024;-80
2022/03/31 04:21:40;;;;;;;2.20;2.00;;;3.50;99.90;;;;;;4989542;28;20038;-80
2022/03/31 04:24:07;;;;;;;2.83;1.75;;;3.50;65.20;;;;;;4989044;28;20391;-81
2022/03/31 04:26:33;;;;;;;2.78;1.45;;;3.40;10.70;;;;;;5001378;28;20007;-82
2022/03/31 04:29:01;;;;;;;2.38;1.15;;;3.40;1.00;;;;;;4999862;28;20012;-81
2022/03/31 04:31:27;;;;;;;2.72;1.48;;;3.40;1.00;;;;;;4993445;28;20102;-81
2022/03/31 04:33:52;;;;;;;2.33;1.20;;;3.30;5.40;;;;;;4987992;28;20082;-81
2022/03/31 04:36:18;;;;;;;1.60;1.10;;;3.30;12.30;;;;;;4989555;28;20033;-81
2022/03/31 04:38:45;;;;;;;1.20;1.10;;;3.30;2.50;;;;;;4989400;28;20019;-82
2022/03/31 04:41:10;;;;;;;2.83;0.90;;;3.10;37.50;;;;;;4989536;28;20042;-82
2022/03/31 04:43:36;;;;;;;0.80;0.80;;;3.00;81.10;;;;;;4985606;28;20051;-81
2022/03/31 04:46:01;;;;;;;1.60;1.50;;;2.90;97.10;;;;;;4991542;28;20050;-81
2022/03/31 04:48:29;;;;;;;1.38;1.02;;;2.90;99.90;;;;;;5001687;28;20110;-81
2022/03/31 04:50:54;;;;;;;1.42;0.93;;;2.70;99.90;;;;;;4999714;28;20011;-81
2022/03/31 04:53:20;;;;;;;0.70;0.35;;;2.40;99.90;;;;;;4993085;28;20042;-81
2022/03/31 04:55:45;;;;;;;0.80;0.40;;;2.30;99.90;;;;;;4990692;28;20023;-81
2022/03/31 04:58:11;;;;;;;0.60;0.50;;;2.20;99.90;;;;;;4982277;28;20016;-81
2022/03/31 05:00:37;;;;;;;0.85;0.60;;;2.10;99.90;;;;;;4997056;28;20034;-80
2022/03/31 05:03:03;;;;;;;0.80;0.60;;;2.10;99.90;;;;;;5000652;28;20031;-79
2022/03/31 05:05:28;;;;;;;2.03;0.77;;;2.10;99.90;;;;;;5000884;28;20038;-80
2022/03/31 05:07:54;;;;;;;0.95;0.60;;;2.10;99.90;;;;;;4995395;28;20014;-80
2022/03/31 05:10:20;;;;;;;1.40;0.70;;;2.10;99.90;;;;;;5020165;28;20082;-80
2022/03/31 05:12:46;;;;;;;1.65;0.98;;;2.10;99.90;;;;;;5013985;28;20011;-80
2022/03/31 05:15:11;;;;;;;0.95;0.63;;;2.10;99.90;;;;;;5005239;28;20059;-80
2022/03/31 05:17:38;;;;;;;1.95;0.80;;;2.20;99.90;;;;;;5020007;28;20025;-80
2022/03/31 05:20:09;;;;;;;0.68;0.60;;;2.20;99.90;;;;;;5020101;28;20053;-80
2022/03/31 05:22:36;;;;;;;0.73;0.45;;;2.20;99.90;;;;;;5019550;28;20038;-80
2022/03/31 05:25:03;;;;;;;1.00;0.90;;;2.20;99.90;;;;;;5018228;28;20133;-80
2022/03/31 05:27:28;;;;;;;1.13;1.02;;;2.20;99.90;;;;;;5019106;28;20098;-81
2022/03/31 05:29:54;;;;;;;1.08;0.77;;;2.20;99.90;;;;;;5000872;28;20031;-81
2022/03/31 05:32:20;;;;;;;1.48;1.25;;;2.20;99.90;;;;;;5004930;28;20026;-82
2022/03/31 05:34:46;;;;;;;0.75;0.75;;;2.20;99.90;;;;;;5011412;28;20014;-81
2022/03/31 05:37:11;;;;;;;1.88;1.00;;;2.30;99.90;;;;;;4999676;28;20046;-82
2022/03/31 05:39:37;;;;;;;1.63;1.17;;;2.30;99.90;;;;;;4999764;28;20453;-82
2022/03/31 05:42:03;;;;;;;1.75;1.20;;;2.30;99.90;;;;;;5000947;28;20035;-82
2022/03/31 05:44:29;;;;;;;1.20;1.10;;;2.40;99.90;;;;;;4995023;28;20094;-82
2022/03/31 05:46:54;;;;;;;1.52;1.17;;;2.40;99.90;;;;;;5000708;28;20023;-83
2022/03/31 05:49:20;;;;;;;1.77;0.82;;;2.50;99.90;;;;;;5005524;28;20099;-82
2022/03/31 05:51:45;;;;;;;0.73;0.73;;;2.50;99.90;;;;;;5004296;28;20486;-83
2022/03/31 05:54:11;;;;;;;0.98;0.90;;;2.60;99.90;;;;;;5000079;28;20031;-83
2022/03/31 05:56:37;;;;;;;2.75;1.10;;;2.60;99.90;;;;;;4994656;28;20080;-82
2022/03/31 05:59:04;;;;;;;2.60;1.20;;;2.60;99.90;;;;;;4989550;28;20039;-82
2022/03/31 06:01:29;;;;;;;1.58;1.45;;;2.60;99.90;;;;;;4984552;28;20126;-82
2022/03/31 06:03:55;;;;;;;1.40;0.82;;;2.70;99.90;;;;;;4996772;28;20022;-82
2022/03/31 06:06:21;;;;;;;1.67;1.48;;;2.70;99.90;;;;;;4990277;28;20082;-83
2022/03/31 06:08:47;;;;;;;2.00;1.08;;;2.70;99.90;;;;;;4989504;28;20069;-82
2022/03/31 06:11:13;;;;;;;2.00;1.40;;;2.70;99.90;;;;;;4986328;28;20058;-83
2022/03/31 06:13:38;;;;;;;2.10;1.20;;;2.70;99.90;;;;;;4988694;28;20034;-83
2022/03/31 06:16:04;;;;;;;4.93;1.38;;;2.80;99.90;;;;;;4988812;28;20031;-82
2022/03/31 06:18:30;;;;;;;3.15;1.95;;;2.80;99.90;;;;;;4987956;28;20026;-82
2022/03/31 06:20:57;;;;;;;1.73;1.63;;;2.80;99.90;;;;;;4988309;28;20664;-82
2022/03/31 06:23:23;;;;;;;3.30;1.65;;;2.80;99.90;;;;;;4988637;28;20030;-83
2022/03/31 06:25:50;;;;;;;2.60;2.03;;;2.80;99.90;;;;;;4999943;28;20397;-83
2022/03/31 06:28:16;;;;;;;2.60;1.33;;;2.90;99.90;;;;;;5010084;28;20080;-82
2022/03/31 06:30:41;;;;;;;2.42;2.10;;;2.90;99.90;;;;;;5004758;28;20031;-82
2022/03/31 06:33:08;;;;;;;3.42;2.42;;;3.10;99.90;;;;;;4991361;28;20054;-82
2022/03/31 06:35:34;;;;;;;4.03;2.47;;;3.10;99.90;;;;;;4993819;28;20058;-82
2022/03/31 06:38:01;;;;;;;2.08;1.45;;;3.20;99.90;;;;;;4995716;28;20031;-83
2022/03/31 06:40:27;;;;;;;3.00;1.70;;;3.30;99.90;;;;;;4999171;28;20038;-82
2022/03/31 06:42:53;;;;;;;2.72;2.13;;;3.30;99.90;;;;;;4999638;28;20022;-83
2022/03/31 06:45:19;;;;;;;4.35;2.95;;;3.40;99.90;;;;;;5005294;28;20054;-83
2022/03/31 06:47:45;;;;;;;3.42;2.55;;;3.40;99.90;;;;;;4989263;28;20022;-83
2022/03/31 06:50:13;;;;;;;3.75;2.85;;;3.40;99.90;;;;;;4988296;28;20117;-83
2022/03/31 06:52:38;;;;;;;5.60;2.60;;;3.40;99.90;;;;;;4989548;28;20033;-83
2022/03/31 06:55:05;;;;;;;3.88;2.53;;;3.40;99.90;;;;;;4998986;28;20026;-83
2022/03/31 06:57:31;;;;;;;3.70;2.70;;;3.50;99.90;;;;;;4994541;28;20034;-83
2022/03/31 06:59:57;;;;;;;6.25;3.50;;;3.50;99.90;;;;;;4968681;28;20022;-83
2022/03/31 07:02:23;;;;;;;3.88;2.42;;;3.50;99.90;;;;;;4988442;28;20022;-83
2022/03/31 07:04:48;;;;;;;3.10;2.55;;;3.60;99.90;;;;;;4987603;28;20082;-83
2022/03/31 07:07:15;;;;;;;5.30;2.83;;;3.70;99.90;;;;;;4987461;28;20031;-83
2022/03/31 07:09:40;;;;;;;2.38;1.65;;;3.80;99.90;;;;;;4984378;28;20029;-83
2022/03/31 07:12:06;;;;;;;3.60;1.92;;;3.80;99.90;;;;;;4985006;28;20113;-83
2022/03/31 07:14:35;;;;;;;1.77;1.48;;;3.80;99.90;;;;;;4986858;28;20057;-83
2022/03/31 07:17:01;;;;;;;2.53;2.33;;;3.90;99.90;;;;;;4995345;28;20027;-83
2022/03/31 07:19:26;;;;;;;1.73;1.60;;;3.80;99.90;;;;;;4999142;28;20019;-83
2022/03/31 07:21:52;;;;;;;3.33;2.00;;;3.90;99.90;;;;;;4987514;28;20030;-83
2022/03/31 07:24:18;;;;;;;1.95;1.77;;;3.90;99.90;;;;;;4982980;28;20130;-83
2022/03/31 07:26:43;;;;;;;2.00;1.65;;;3.90;99.90;;;;;;4981302;28;20023;-82
2022/03/31 07:29:09;;;;;;;2.55;1.98;;;4.00;99.90;;;;;;4991952;28;20121;-83
2022/03/31 07:31:34;;;;;;;2.63;2.20;;;4.00;99.90;;;;;;4991713;28;20045;-83
2022/03/31 07:34:00;;;;;;;2.50;2.30;;;4.10;99.90;;;;;;4975819;28;20122;-83
2022/03/31 07:36:26;;;;;;;1.85;1.60;;;4.20;99.90;;;;;;4971829;28;20023;-83
2022/03/31 07:38:52;;;;;;;2.38;1.90;;;4.20;99.90;;;;;;4977927;28;20019;-83
2022/03/31 07:41:17;;;;;;;2.45;2.20;;;4.30;99.90;;;;;;4976771;28;20097;-83
2022/03/31 07:43:44;;;;;;;2.00;1.80;;;4.20;99.90;;;;;;4979935;28;20034;-83
2022/03/31 07:46:10;;;;;;;2.45;2.03;;;4.40;99.90;;;;;;4985680;28;20030;-83
2022/03/31 07:48:37;;;;;;;2.80;2.53;;;4.40;99.90;;;;;;4988780;28;20101;-83
2022/03/31 07:51:03;;;;;;;2.17;1.98;;;4.40;99.90;;;;;;4993387;28;20106;-83
2022/03/31 07:53:33;;;;;;;2.20;2.00;;;4.40;99.90;;;;;;4989982;28;20030;-83
2022/03/31 07:56:00;;;;;;;3.13;2.53;;;4.50;99.90;;;;;;5004235;28;20531;-83
2022/03/31 07:58:25;;;;;;;3.30;2.20;;;4.60;99.90;;;;;;5003403;28;20037;-82
2022/03/31 08:00:52;;;;;;;2.55;2.35;;;4.60;99.90;;;;;;5004570;28;20034;-83
2022/03/31 08:03:18;;;;;;;3.28;2.60;;;4.70;99.90;;;;;;5007570;28;20485;-83
2022/03/31 08:05:45;;;;;;;4.72;3.35;;;4.70;99.90;;;;;;5003725;28;20022;-83
2022/03/31 08:08:11;;;;;;;2.85;2.30;;;4.70;87.70;;;;;;4986325;28;20415;-83
2022/03/31 08:10:36;;;;;;;2.58;2.38;;;4.60;99.90;;;;;;5004825;28;20035;-83
2022/03/31 08:13:03;;;;;;;3.15;2.38;;;4.50;99.90;;;;;;4999148;28;20509;-83
2022/03/31 08:15:28;;;;;;;2.60;2.30;;;4.60;99.90;;;;;;4996076;28;20481;-82
2022/03/31 08:17:54;;;;;;;3.13;2.25;;;4.50;99.90;;;;;;5008950;28;20030;-83
2022/03/31 08:20:21;;;;;;;3.08;2.65;;;4.50;99.90;;;;;;4995065;28;20045;-83
2022/03/31 08:22:47;;;;;;;2.38;2.17;;;4.50;99.90;;;;;;4989839;28;20121;-83
2022/03/31 08:25:13;;;;;;;2.60;2.38;;;4.50;99.90;;;;;;5003060;28;20022;-83
2022/03/31 08:27:39;;;;;;;4.32;2.97;;;4.70;99.90;;;;;;5000824;28;20034;-83
2022/03/31 08:30:08;;;;;;;2.65;2.05;;;4.60;99.90;;;;;;5006931;28;20034;-83
2022/03/31 08:32:36;;;;;;;3.70;2.83;;;4.70;99.90;;;;;;5002151;28;20030;-83
2022/03/31 08:35:06;;;;;;;4.22;2.58;;;4.50;99.90;;;;;;5008386;28;20019;-83
2022/03/31 08:37:32;;;;;;;2.85;2.35;;;4.50;99.90;;;;;;4990415;28;20031;-83
2022/03/31 08:39:58;;;;;;;4.13;3.20;;;4.50;99.90;;;;;;4987957;28;20038;-83
2022/03/31 08:42:23;;;;;;;3.67;3.13;;;4.50;99.90;;;;;;5006229;28;20098;-83
2022/03/31 08:44:51;;;;;;;4.07;2.70;;;4.30;99.90;;;;;;5007267;28;20047;-83
2022/03/31 08:47:19;;;;;;;3.85;2.70;;;3.90;99.90;;;;;;5001891;28;20037;-83
2022/03/31 08:49:46;;;;;;;3.35;2.65;;;4.00;99.90;;;;;;5002097;28;20022;-82
2022/03/31 08:52:12;;;;;;;4.00;2.80;;;3.90;99.90;;;;;;5007258;28;20033;-83
2022/03/31 08:54:39;;;;;;;5.53;3.30;;;4.00;99.90;;;;;;5000971;28;20030;-83
2022/03/31 08:57:05;;;;;;;3.95;3.35;;;3.90;99.90;;;;;;4997325;28;20035;-84
2022/03/31 08:59:31;;;;;;;3.45;2.72;;;3.90;99.90;;;;;;4974293;28;20030;-83
2022/03/31 09:01:56;;;;;;;3.28;2.75;;;3.90;99.90;;;;;;4989749;28;20121;-84
2022/03/31 09:04:23;;;;;;;2.92;2.60;;;3.80;99.90;;;;;;4992685;28;20014;-82
2022/03/31 09:07:10;;;;;;;3.92;3.15;;;3.70;99.90;;;;;;4992181;28;20031;-82
2022/03/31 09:09:48;;;;;;;2.83;2.50;;;3.90;99.90;;;;;;4988096;28;20023;-82
2022/03/31 09:12:14;;;;;;;3.30;2.67;;;3.70;99.90;;;;;;4990674;28;20026;-82
2022/03/31 09:14:39;;;;;;;2.53;2.33;;;3.80;99.90;;;;;;4989865;28;20062;-83
2022/03/31 09:17:12;;;;;;;4.18;2.63;;;3.70;99.90;;;;;;4991037;28;20038;-82
2022/03/31 09:19:38;;;;;;;3.15;2.80;;;3.80;1.00;;;;;;4990661;28;20015;-82
2022/03/31 09:22:04;;;;;;;4.03;2.70;;;3.60;1.00;;;;;;4988344;28;20038;-84
2022/03/31 09:24:31;;;;;;;3.50;2.50;;;3.70;1.00;;;;;;4995958;28;20133;-83
2022/03/31 09:26:58;;;;;;;3.40;3.10;;;3.70;1.00;;;;;;4998540;28;20015;-83
2022/03/31 09:29:26;;;;;;;3.90;3.00;;;3.60;99.90;;;;;;4993926;28;20046;-83
2022/03/31 09:31:53;;;;;;;4.28;3.53;;;3.60;99.90;;;;;;4997568;28;20410;-83
2022/03/31 09:34:20;;;;;;;5.68;4.25;;;3.70;99.90;;;;;;4989818;28;20058;-84
2022/03/31 09:36:50;;;;;;;2.97;2.67;;;3.70;99.90;;;;;;5002669;28;20081;-84
2022/03/31 09:39:17;;;;;;;;;;;3.60;99.90;;;;;;4992545;28;20026;-83
2022/03/31 09:41:47;;;;;;;4.15;2.97;;;3.80;99.90;;;;;;5002013;28;19955;-83
2022/03/31 09:44:19;;;;;;;2.92;1.58;;;3.90;99.90;;;;;;4985546;28;20021;-83
2022/03/31 09:46:46;;;;;;;3.83;2.88;;;4.10;99.90;;;;;;4971018;28;20062;-84
2022/03/31 09:49:26;;;;;;;5.05;3.30;;;4.00;99.90;;;;;;4994192;28;20022;-84
2022/03/31 09:51:54;;;;;;;4.73;2.87;;;3.60;99.90;;;;;;5001659;28;20081;-84
2022/03/31 09:54:25;;;;;;;4.97;3.03;;;3.80;99.90;;;;;;4972021;28;20859;-84
2022/03/31 09:56:51;;;;;;;5.07;3.58;;;3.80;99.90;;;;;;4984580;28;20032;-83
2022/03/31 09:59:18;;;;;;;4.93;3.42;;;3.70;99.90;;;;;;4984625;28;20133;-84
2022/03/31 10:01:44;;;;;;;5.53;2.30;;;3.70;99.90;;;;;;4983065;28;20114;-83
2022/03/31 10:04:12;;;;;;;4.88;3.40;;;3.60;99.90;;;;;;4986185;28;20053;-84
2022/03/31 10:06:42;;;;;;;3.47;2.47;;;3.60;99.90;;;;;;4976431;28;20034;-83
2022/03/31 10:09:10;;;;;;;7.15;3.00;;;3.70;99.90;;;;;;4991936;28;20022;-84
2022/03/31 10:11:43;;;;;;;4.85;3.35;;;3.60;99.90;;;;;;5002187;28;20042;-84
2022/03/31 10:14:43;;;;;;;3.28;2.85;;;3.50;99.90;;;;;;4993306;28;20051;-83
2022/03/31 10:17:09;;;;;;;3.88;3.47;;;3.60;99.90;;;;;;4992305;28;20108;-82
2022/03/31 10:19:39;;;;;;;5.25;3.67;;;4.30;99.90;;;;;;4980470;28;20047;-82
2022/03/31 10:24:58;;;;;;;3.78;2.92;;;4.90;99.90;;;;;;4986547;28;20478;-81
2022/03/31 10:27:28;;;;;;;4.03;2.88;;;3.60;99.90;;;;;;4985990;28;20031;-81
2022/03/31 10:29:55;;;;;;;4.10;3.13;;;4.90;99.90;;;;;;5008081;28;20038;-81
2022/03/31 10:32:24;;;;;;;5.03;3.53;;;3.70;99.90;;;;;;5002586;28;20031;-81
2022/03/31 10:34:53;;;;;;;4.80;3.30;;;4.80;99.90;;;;;;4983845;28;20057;-82
2022/03/31 10:37:38;;;;;;;3.28;2.47;;;4.90;99.90;;;;;;4978774;28;20027;-81
2022/03/31 10:40:08;;;;;;;3.60;2.08;;;3.70;99.90;;;;;;4981325;28;20038;-82
2022/03/31 10:42:34;;;;;;;3.40;2.03;;;4.60;99.90;;;;;;4987050;28;20030;-81
2022/03/31 10:45:14;;;;;;;3.58;2.78;;;5.00;99.90;;;;;;4979858;28;20027;-82
2022/03/31 10:47:42;;;;;;;3.33;2.30;;;4.70;99.90;;;;;;4962393;28;20046;-81
2022/03/31 10:50:11;;;;;;;2.05;1.88;;;4.50;99.90;;;;;;4975468;28;20030;-81
2022/03/31 10:52:37;;;;;;;4.22;2.22;;;4.50;99.90;;;;;;4975567;28;20488;-81
2022/03/31 10:55:09;;;;;;;4.38;2.80;;;3.80;99.90;;;;;;4977272;28;20060;-82
2022/03/31 10:57:43;;;;;;;3.42;2.75;;;3.10;99.90;;;;;;4984138;28;20019;-81
2022/03/31 11:00:10;;;;;;;4.65;3.67;;;2.80;99.90;;;;;;4976677;28;20027;-82
2022/03/31 11:02:41;;;;;;;6.10;4.28;;;3.70;99.90;;;;;;4992481;28;20030;-81
2022/03/31 11:05:07;;;;;;;3.47;2.80;;;3.30;99.90;;;;;;4992740;28;20098;-82
2022/03/31 11:07:33;;;;;;;3.50;2.58;;;3.60;99.90;;;;;;4995837;28;20403;-81
2022/03/31 11:10:10;;;;;;;4.57;3.50;;;3.70;99.90;;;;;;5001595;28;20046;-81
2022/03/31 11:12:36;;;;;;;5.15;3.38;;;2.70;99.90;;;;;;5003650;28;20022;-82
2022/03/31 11:15:02;;;;;;;3.65;2.65;;;3.30;99.90;;;;;;4987056;28;20050;-82
2022/03/31 11:17:29;;;;;;;3.15;2.70;;;3.50;99.90;;;;;;5000859;28;20508;-83
2022/03/31 11:19:59;;;;;;;6.40;3.80;;;3.70;99.90;;;;;;4970188;28;20019;-83
2022/03/31 11:22:28;;;;;;;4.80;3.78;;;2.50;99.90;;;;;;4982250;28;20031;-85
2022/03/31 11:25:06;;;;;;;4.28;2.72;;;2.70;99.90;;;;;;4983349;28;20347;-84
2022/03/31 11:27:36;;;;;;;4.95;3.38;;;2.60;99.90;;;;;;4972854;28;20093;-84
2022/03/31 11:30:08;;;;;;;2.78;2.38;;;2.80;99.90;;;;;;4986860;28;20039;-83
2022/03/31 11:32:35;;;;;;;3.50;3.13;;;3.30;99.90;;;;;;4973081;28;20129;-83
2022/03/31 11:35:03;;;;;;;3.92;2.92;;;2.40;99.90;;;;;;4967142;28;20031;-83
2022/03/31 11:37:28;;;;;;;3.97;2.88;;;3.00;99.90;;;;;;4980375;28;20401;-83
2022/03/31 11:39:54;;;;;;;4.97;2.83;;;3.10;99.90;;;;;;4979840;28;20486;-84
2022/03/31 11:42:20;;;;;;;5.32;3.08;;;3.10;99.90;;;;;;4978203;28;20034;-84
2022/03/31 11:44:46;;;;;;;3.70;3.28;;;2.80;99.90;;;;;;4972582;28;20054;-84
2022/03/31 11:47:17;;;;;;;2.80;2.33;;;2.40;99.90;;;;;;4991184;28;20053;-84
2022/03/31 11:49:44;;;;;;;2.65;2.10;;;2.90;99.90;;;;;;4984810;28;20027;-84
2022/03/31 11:52:09;;;;;;;4.53;3.67;;;3.20;99.90;;;;;;4981068;28;20030;-85
2022/03/31 11:54:43;;;;;;;3.47;2.72;;;2.90;99.90;;;;;;4983801;28;20397;-85
2022/03/31 11:57:11;;;;;;;3.50;2.45;;;2.90;99.90;;;;;;4975942;28;20113;-84
2022/03/31 11:59:37;;;;;;;3.15;2.35;;;3.00;99.90;;;;;;4990523;28;20034;-85
2022/03/31 12:02:13;;;;;;;3.75;2.50;;;2.10;99.90;;;;;;4973945;28;20035;-84
2022/03/31 12:04:44;;;;;;;3.13;2.63;;;2.10;99.90;;;;;;4969881;28;20052;-84
2022/03/31 12:07:10;;;;;;;3.70;2.70;;;2.20;99.90;;;;;;4974897;28;20038;-83
2022/03/31 12:09:38;;;;;;;4.13;3.05;;;3.10;99.90;;;;;;4985661;28;20027;-84
2022/03/31 12:12:06;;;;;;;2.58;1.85;;;3.20;99.90;;;;;;4982932;28;20126;-84
2022/03/31 12:14:34;;;;;;;3.92;2.85;;;3.10;99.90;;;;;;4983102;28;20050;-84
2022/03/31 12:16:59;;;;;;;3.28;2.72;;;2.40;99.90;;;;;;4983733;28;20026;-84
2022/03/31 12:19:36;;;;;;;4.00;3.03;;;2.10;99.90;;;;;;4980591;28;20026;-84
2022/03/31 12:22:02;;;;;;;4.88;4.10;;;1.70;99.90;;;;;;4963071;28;20359;-84
2022/03/31 12:24:27;;;;;;;3.45;2.97;;;3.00;99.90;;;;;;4969357;28;20015;-84
2022/03/31 12:27:05;;;;;;;5.18;3.72;;;2.60;99.90;;;;;;4972663;28;20052;-84
2022/03/31 12:29:33;;;;;;;3.65;2.63;;;3.80;99.90;;;;;;4972793;28;20351;-85
2022/03/31 12:32:06;;;;;;;5.68;3.42;;;3.10;99.90;;;;;;4969867;28;20036;-85
2022/03/31 12:34:34;;;;;;;3.47;3.13;;;1.10;99.90;;;;;;4967372;28;20097;-86
2022/03/31 12:37:00;;;;;;;4.32;3.15;;;1.20;99.90;;;;;;4971678;28;20577;-85
2022/03/31 12:39:27;;;;;;;4.82;3.40;;;1.30;99.90;;;;;;4972926;28;20564;-85
2022/03/31 12:41:55;;;;;;;4.75;3.22;;;3.20;99.90;;;;;;4976791;28;20031;-84
2022/03/31 12:44:25;;;;;;;5.60;2.83;;;2.30;99.90;;;;;;4977366;28;20483;-85
2022/03/31 12:46:51;;;;;;;4.03;3.10;;;2.40;99.90;;;;;;4972471;28;20475;-84
2022/03/31 12:49:19;;;;;;;5.07;3.22;;;1.60;99.90;;;;;;4965325;28;20026;-85
2022/03/31 12:51:46;;;;;;;4.72;3.38;;;1.70;99.90;;;;;;4972928;28;20101;-87
2022/03/31 12:54:19;;;;;;;4.65;3.30;;;2.30;99.90;;;;;;4974784;28;20352;-86
2022/03/31 12:56:46;;;;;;;5.10;4.47;;;1.70;99.90;;;;;;4973187;28;20101;-87
2022/03/31 12:59:19;;;;;;;4.93;3.92;;;1.20;99.90;;;;;;4994659;28;20094;-87
2022/03/31 13:02:03;;;;;;;4.63;3.05;;;2.30;99.90;;;;;;4993639;28;20090;-87
2022/03/31 13:04:42;;;;;;;2.70;2.15;;;1.70;99.90;;;;;;5000186;28;20064;-88
2022/03/31 13:07:12;;;;;;;4.10;2.90;;;2.00;99.90;;;;;;4985937;28;20065;-87
2022/03/31 13:09:38;;;;;;;7.60;2.90;;;1.90;99.90;;;;;;4993531;28;20027;-87